createdAt,value
2022-12-15T00:01:12.255Z,97529.44
2022-12-15T00:04:38.684Z,97526.63
2022-12-15T00:08:05.333Z,97536.12
2022-12-15T00:11:31.769Z,97537.77
2022-12-15T00:14:58.521Z,97545.40
2022-12-15T00:18:28.214Z,97556.06
2022-12-15T00:21:54.618Z,97563.11
2022-12-15T00:25:21.324Z,97564.59
2022-12-15T00:28:47.783Z,97568.58
2022-12-15T00:32:14.208Z,97576.38
2022-12-15T00:35:41.232Z,97581.38
2022-12-15T00:38:53.832Z,97576.92
2022-12-15T00:42:05.677Z,97593.27
2022-12-15T00:45:18.587Z,97590.86
2022-12-15T00:48:30.499Z,97594.95
2022-12-15T00:51:57.298Z,97602.55
2022-12-15T00:55:25.427Z,97604.13
2022-12-15T00:58:52.170Z,97612.78
2022-12-15T01:02:19.657Z,97607.58
2022-12-15T01:05:46.292Z,97617.97
2022-12-15T01:09:12.824Z,97616.86
2022-12-15T01:12:39.628Z,97617.61
2022-12-15T01:16:06.461Z,97619.27
2022-12-15T01:19:33.098Z,97623.72
2022-12-15T01:22:45.908Z,97630.88
2022-12-15T01:26:00.417Z,97635.22
2022-12-15T01:29:12.360Z,97645.72
2022-12-15T01:32:24.351Z,97645.82
2022-12-15T01:35:36.200Z,97650.01
2022-12-15T01:38:53.697Z,97649.06
2022-12-15T01:42:01.861Z,97643.97
2022-12-15T01:45:51.848Z,97657.88
2022-12-15T01:49:11.179Z,97655.27
2022-12-15T01:52:24.284Z,97657.88
2022-12-15T01:55:38.135Z,97669.47
2022-12-15T01:58:53.950Z,97659.27
2022-12-15T02:02:06.119Z,97666.97
2022-12-15T02:05:19.370Z,97672.17
2022-12-15T02:08:31.316Z,97676.72
2022-12-15T02:12:10.192Z,97682.43
2022-12-15T02:15:30.543Z,97682.52
2022-12-15T02:18:48.689Z,97685.13
2022-12-15T02:22:08.568Z,97684.47
2022-12-15T02:25:38.312Z,97690.52
2022-12-15T02:29:00.485Z,97690.32
2022-12-15T02:32:16.886Z,97698.86
2022-12-15T02:35:34.855Z,97706.50
2022-12-15T02:38:48.054Z,97707.05
2022-12-15T02:42:00.440Z,97706.86
2022-12-15T02:45:20.008Z,97715.41
2022-12-15T02:48:38.731Z,97714.50
2022-12-15T02:51:58.230Z,97714.59
2022-12-15T02:55:22.264Z,97720.44
2022-12-15T02:58:40.735Z,97718.59
2022-12-15T03:01:57.519Z,97722.78
2022-12-15T03:05:08.312Z,97730.30
2022-12-15T03:08:21.083Z,97712.45
2022-12-15T03:11:33.231Z,97723.08
2022-12-15T03:14:45.130Z,97727.34
2022-12-15T03:17:56.885Z,97723.83
2022-12-15T03:21:08.738Z,97727.92
2022-12-15T03:24:20.870Z,97727.92
2022-12-15T03:27:32.742Z,97727.92
2022-12-15T03:30:44.887Z,97731.27
2022-12-15T03:33:57.454Z,97735.37
2022-12-15T03:37:09.455Z,97738.72
2022-12-15T03:40:22.119Z,97742.81
2022-12-15T03:43:34.180Z,97746.16
2022-12-15T03:46:46.372Z,97761.56
2022-12-15T03:49:58.378Z,97763.05
2022-12-15T03:53:10.887Z,97767.25
2022-12-15T03:56:23.723Z,97767.90
2022-12-15T03:59:35.630Z,97768.84
2022-12-15T04:02:47.826Z,97772.94
2022-12-15T04:06:01.783Z,97780.55
2022-12-15T04:09:13.671Z,97783.99
2022-12-15T04:12:25.513Z,97786.50
2022-12-15T04:15:37.632Z,97788.91
2022-12-15T04:18:51.721Z,97795.80
2022-12-15T04:22:03.536Z,97793.19
2022-12-15T04:25:33.958Z,97794.69
2022-12-15T04:29:00.510Z,97798.03
2022-12-15T04:32:27.295Z,97807.70
2022-12-15T04:35:55.731Z,97807.50
2022-12-15T04:39:24.943Z,97810.09
2022-12-15T04:42:53.332Z,97813.65
2022-12-15T04:46:19.640Z,97816.25
2022-12-15T04:49:46.725Z,97823.95
2022-12-15T04:53:13.565Z,97829.91
2022-12-15T04:56:40.427Z,97825.72
2022-12-15T05:00:06.950Z,97825.55
2022-12-15T05:03:33.939Z,97848.02
2022-12-15T05:06:59.436Z,97843.66
2022-12-15T05:10:28.329Z,97835.70
2022-12-15T05:13:54.872Z,97842.66
2022-12-15T05:17:21.824Z,97846.01
2022-12-15T05:20:50.004Z,97856.31
2022-12-15T05:24:17.058Z,97859.57
2022-12-15T05:27:43.702Z,97862.17
2022-12-15T05:31:10.289Z,97873.33
2022-12-15T05:34:22.466Z,97878.73
2022-12-15T05:37:34.228Z,97884.78
2022-12-15T05:40:46.253Z,97889.05
2022-12-15T05:43:58.111Z,97889.05
2022-12-15T05:47:11.753Z,97909.96
2022-12-15T05:50:24.229Z,97914.32
2022-12-15T05:53:36.203Z,97912.56
2022-12-15T05:56:50.129Z,97923.89
2022-12-15T06:00:02.104Z,97925.73
2022-12-15T06:03:16.170Z,97938.59
2022-12-15T06:06:28.617Z,97936.73
2022-12-15T06:09:40.921Z,97951.25
2022-12-15T06:12:52.775Z,97947.99
2022-12-15T06:16:10.071Z,97958.22
2022-12-15T06:19:22.059Z,97959.52
2022-12-15T06:22:35.964Z,97967.62
2022-12-15T06:25:47.847Z,97970.22
2022-12-15T06:29:02.767Z,97971.88
2022-12-15T06:32:14.663Z,97988.34
2022-12-15T06:35:26.568Z,97995.16
2022-12-15T06:38:39.285Z,98006.31
2022-12-15T06:41:56.671Z,98010.48
2022-12-15T06:51:41.500Z,98016.20
2022-12-15T06:58:37.372Z,98030.22
2022-12-15T07:02:51.099Z,98036.11
2022-12-15T07:06:12.180Z,98042.83
2022-12-15T07:09:26.259Z,98044.08
2022-12-15T07:12:39.418Z,98055.84
2022-12-15T07:15:51.677Z,98053.05
2022-12-15T07:19:03.824Z,98064.41
2022-12-15T07:22:15.942Z,98059.01
2022-12-15T07:25:28.347Z,98061.45
2022-12-15T07:28:42.195Z,98071.78
2022-12-15T07:31:54.882Z,98069.83
2022-12-15T07:35:08.730Z,98075.95
2022-12-15T07:38:21.068Z,98087.88
2022-12-15T07:41:39.690Z,98091.07
2022-12-15T07:45:01.480Z,98097.59
2022-12-15T07:48:18.683Z,98102.81
2022-12-15T07:51:34.535Z,98118.28
2022-12-15T07:54:48.948Z,98112.88
2022-12-15T07:58:03.939Z,98134.76
2022-12-15T08:01:20.748Z,98140.88
2022-12-15T08:04:34.080Z,98144.14
2022-12-15T08:07:46.090Z,98140.53
2022-12-15T08:10:58.275Z,98151.90
2022-12-15T08:14:16.712Z,98163.98
2022-12-15T08:17:24.682Z,98164.64
2022-12-15T08:20:37.391Z,98169.09
2022-12-15T08:23:49.755Z,98171.36
2022-12-15T08:27:02.380Z,98174.91
2022-12-15T08:30:18.579Z,98190.36
2022-12-15T08:33:30.841Z,98203.39
2022-12-15T08:36:43.076Z,98205.14
2022-12-15T08:39:55.275Z,98212.05
2022-12-15T08:43:07.179Z,98228.88
2022-12-15T08:46:20.368Z,98230.72
2022-12-15T08:49:32.784Z,98213.25
2022-12-15T08:53:06.594Z,98237.03
2022-12-15T08:55:59.288Z,98239.78
2022-12-15T08:59:11.280Z,98226.70
2022-12-15T09:02:23.615Z,98232.73
2022-12-15T09:05:36.265Z,98237.13
2022-12-15T09:08:50.564Z,98242.24
2022-12-15T09:12:02.694Z,98233.33
2022-12-15T09:15:17.115Z,98225.67
2022-12-15T09:18:28.959Z,98236.84
2022-12-15T09:21:44.239Z,98241.72
2022-12-15T09:24:56.515Z,98240.05
2022-12-15T09:28:08.887Z,98233.33
2022-12-15T09:31:23.414Z,98237.60
2022-12-15T09:34:35.416Z,98235.75
2022-12-15T09:37:51.565Z,98237.27
2022-12-15T09:41:01.603Z,98238.62
2022-12-15T09:44:20.161Z,98241.98
2022-12-15T09:47:41.216Z,98243.55
2022-12-15T09:50:57.703Z,98242.64
2022-12-15T09:54:10.390Z,98247.01
2022-12-15T09:57:36.147Z,98245.00
2022-12-15T10:00:55.343Z,98242.80
2022-12-15T10:04:14.581Z,98248.17
2022-12-15T10:10:49.315Z,98249.69
2022-12-15T10:14:11.074Z,98251.69
2022-12-15T10:17:30.460Z,98249.65
2022-12-15T10:20:43.703Z,98252.25
2022-12-15T10:23:57.922Z,98244.22
2022-12-15T10:27:21.532Z,98256.41
2022-12-15T10:30:34.576Z,98255.09
2022-12-15T10:33:50.175Z,98268.88
2022-12-15T10:51:12.013Z,98245.78
2022-12-15T10:57:39.798Z,98262.13
2022-12-15T11:00:52.307Z,98259.08
2022-12-15T11:04:04.681Z,98275.73
2022-12-15T11:07:20.645Z,98279.94
2022-12-15T11:10:40.710Z,98288.33
2022-12-15T11:14:10.782Z,98299.20
2022-12-15T11:17:25.666Z,98298.09
2022-12-15T11:20:41.920Z,98316.45
2022-12-15T11:27:19.026Z,98324.27
2022-12-15T11:30:36.253Z,98323.33
2022-12-15T11:33:49.337Z,98316.45
2022-12-15T11:37:45.149Z,98300.61
2022-12-15T11:40:58.631Z,98310.22
2022-12-15T11:44:30.020Z,98314.84
2022-12-15T11:47:48.122Z,98295.08
2022-12-15T11:51:07.727Z,98298.13
2022-12-15T11:54:30.539Z,98309.88
2022-12-15T11:58:02.002Z,98319.97
2022-12-15T12:01:21.498Z,98321.81
2022-12-15T12:04:40.097Z,98323.33
2022-12-15T12:07:56.326Z,98321.75
2022-12-15T12:11:15.165Z,98323.09
2022-12-15T12:14:39.591Z,98319.73
2022-12-15T12:17:56.018Z,98332.44
2022-12-15T12:21:13.865Z,98327.31
2022-12-15T12:24:31.251Z,98336.55
2022-12-15T12:27:50.235Z,98335.29
2022-12-15T12:31:06.005Z,98338.98
2022-12-15T12:34:22.025Z,98339.31
2022-12-15T12:37:41.507Z,98344.63
2022-12-15T12:41:03.873Z,98340.34
2022-12-15T12:44:22.563Z,98340.69
2022-12-15T12:47:38.421Z,98332.92
2022-12-15T12:50:51.086Z,98330.50
2022-12-15T12:54:03.966Z,98331.27
2022-12-15T12:57:44.759Z,98343.77
2022-12-15T13:01:15.406Z,98329.98
2022-12-15T13:04:48.198Z,98332.59
2022-12-15T13:08:22.706Z,98346.05
2022-12-15T13:12:21.015Z,98345.28
2022-12-15T13:15:26.302Z,98353.71
2022-12-15T13:19:03.233Z,98358.93
2022-12-15T13:22:31.704Z,98358.33
2022-12-15T13:25:55.492Z,98359.17
2022-12-15T13:29:05.488Z,98350.44
2022-12-15T13:32:32.862Z,98337.98
2022-12-15T13:35:46.078Z,98342.53
2022-12-15T13:39:02.167Z,98361.88
2022-12-15T13:42:53.056Z,98359.36
2022-12-15T13:46:02.489Z,98344.63
2022-12-15T13:49:19.470Z,98344.53
2022-12-15T13:53:08.727Z,98356.81
2022-12-15T13:56:13.769Z,98370.03
2022-12-15T13:59:38.567Z,98370.94
2022-12-15T14:02:51.115Z,98374.48
2022-12-15T14:06:05.891Z,98372.64
2022-12-15T14:09:24.010Z,98377.95
2022-12-15T14:12:36.860Z,98389.46
2022-12-15T14:15:54.358Z,98393.82
2022-12-15T14:19:21.347Z,98392.06
2022-12-15T14:22:35.446Z,98411.13
2022-12-15T14:25:51.337Z,98414.82
2022-12-15T14:29:09.172Z,98418.19
2022-12-15T14:32:22.058Z,98426.86
2022-12-15T14:35:39.696Z,98435.67
2022-12-15T14:38:55.536Z,98448.65
2022-12-15T14:42:08.747Z,98452.02
2022-12-15T14:45:29.323Z,98450.00
2022-12-15T14:48:44.349Z,98451.17
2022-12-15T14:52:01.141Z,98453.54
2022-12-15T14:55:38.538Z,98456.15
2022-12-15T14:58:55.481Z,98458.14
2022-12-15T15:02:19.917Z,98459.22
2022-12-15T15:05:40.010Z,98455.44
2022-12-15T15:08:57.366Z,98455.63
2022-12-15T15:12:12.650Z,98460.83
2022-12-15T15:15:31.756Z,98458.98
2022-12-15T15:18:47.370Z,98452.16
2022-12-15T15:22:03.337Z,98456.47
2022-12-15T15:25:44.296Z,98464.97
2022-12-15T15:28:57.785Z,98450.32
2022-12-15T15:32:21.363Z,98456.47
2022-12-15T15:35:38.226Z,98455.71
2022-12-15T15:38:52.229Z,98465.52
2022-12-15T15:42:11.046Z,98473.42
2022-12-15T15:45:23.806Z,98482.09
2022-12-15T15:48:40.278Z,98477.47
2022-12-15T15:51:57.363Z,98481.24
2022-12-15T15:55:21.350Z,98484.75
2022-12-15T15:58:37.013Z,98488.20
2022-12-15T16:01:56.453Z,98493.42
2022-12-15T16:05:13.777Z,98485.23
2022-12-15T16:08:31.320Z,98492.66
2022-12-15T16:11:43.967Z,98490.31
2022-12-15T16:14:56.152Z,98493.99
2022-12-15T16:18:08.574Z,98492.30
2022-12-15T16:21:22.676Z,98478.41
2022-12-15T16:24:34.782Z,98470.59
2022-12-15T16:27:47.573Z,98470.59
2022-12-15T16:31:01.786Z,98455.90
2022-12-15T16:34:13.839Z,98470.45
2022-12-15T16:37:39.223Z,98462.86
2022-12-15T16:40:46.832Z,98467.23
2022-12-15T16:43:58.990Z,98467.54
2022-12-15T16:47:10.985Z,98477.96
2022-12-15T16:50:25.117Z,98464.26
2022-12-15T16:53:40.900Z,98474.77
2022-12-15T16:56:53.284Z,98464.17
2022-12-15T17:00:05.473Z,98475.22
2022-12-15T17:03:23.205Z,98482.18
2022-12-15T17:06:35.795Z,98476.83
2022-12-15T17:09:48.089Z,98481.11
2022-12-15T17:13:05.853Z,98480.20
2022-12-15T17:16:20.108Z,98489.15
2022-12-15T17:19:32.273Z,98489.91
2022-12-15T17:22:44.592Z,98495.13
2022-12-15T17:26:22.557Z,98472.07
2022-12-15T17:29:20.178Z,98484.70
2022-12-15T17:32:32.565Z,98483.03
2022-12-15T17:35:44.679Z,98475.22
2022-12-15T17:39:01.152Z,98477.96
2022-12-15T17:42:23.106Z,98469.23
2022-12-15T17:45:35.754Z,98464.88
2022-12-15T17:48:47.833Z,98457.29
2022-12-15T17:51:59.896Z,98442.42
2022-12-15T17:55:34.629Z,98449.39
2022-12-15T17:58:42.653Z,98455.59
2022-12-15T18:01:57.210Z,98448.71
2022-12-15T18:05:11.313Z,98447.01
2022-12-15T18:08:27.202Z,98426.66
2022-12-15T18:11:39.181Z,98448.71
2022-12-15T18:14:51.200Z,98451.31
2022-12-15T18:18:04.205Z,98458.19
2022-12-15T18:21:23.408Z,98454.77
2022-12-15T18:24:36.328Z,98452.48
2022-12-15T18:27:48.735Z,98464.88
2022-12-15T18:31:05.669Z,98476.91
2022-12-15T18:34:18.767Z,98485.41
2022-12-15T18:37:31.285Z,98493.39
2022-12-15T18:40:43.308Z,98483.79
2022-12-15T18:43:58.923Z,98486.17
2022-12-15T18:47:18.582Z,98498.60
2022-12-15T18:50:31.983Z,98508.17
2022-12-15T18:53:47.675Z,98508.25
2022-12-15T18:56:59.717Z,98495.28
2022-12-15T19:00:24.650Z,98502.95
2022-12-15T19:03:39.003Z,98500.49
2022-12-15T19:06:52.377Z,98499.67
2022-12-15T19:10:05.088Z,98486.73
2022-12-15T19:13:21.906Z,98467.73
2022-12-15T19:16:37.748Z,98462.75
2022-12-15T19:20:04.401Z,98463.59
2022-12-15T19:23:18.308Z,98463.73
2022-12-15T19:26:30.617Z,98456.09
2022-12-15T19:29:45.087Z,98456.40
2022-12-15T19:32:57.277Z,98456.45
2022-12-15T19:36:10.334Z,98449.66
2022-12-15T19:39:27.889Z,98460.84
2022-12-15T19:42:42.172Z,98465.28
2022-12-15T19:45:55.924Z,98465.50
2022-12-15T19:49:08.326Z,98477.75
2022-12-15T19:52:22.872Z,98472.38
2022-12-15T19:55:38.387Z,98461.83
2022-12-15T19:58:51.063Z,98466.41
2022-12-15T20:02:04.007Z,98458.54
2022-12-15T20:05:16.690Z,98466.35
2022-12-15T20:08:32.235Z,98468.02
2022-12-15T20:11:44.249Z,98460.59
2022-12-15T20:14:56.256Z,98465.03
2022-12-15T20:18:09.004Z,98449.50
2022-12-15T20:21:22.738Z,98454.70
2022-12-15T20:24:36.949Z,98459.75
2022-12-15T20:27:49.058Z,98459.75
2022-12-15T20:31:02.669Z,98450.35
2022-12-15T20:34:14.540Z,98434.78
2022-12-15T20:37:31.886Z,98432.17
2022-12-15T20:40:43.878Z,98428.76
2022-12-15T20:43:57.859Z,98421.00
2022-12-15T20:47:10.437Z,98416.87
2022-12-15T20:50:36.416Z,98424.63
2022-12-15T20:53:48.386Z,98417.58
2022-12-15T20:57:00.358Z,98420.41
2022-12-15T21:00:17.897Z,98436.62
2022-12-15T21:03:33.456Z,98444.73
2022-12-15T21:06:48.691Z,98439.39
2022-12-15T21:09:59.728Z,98439.69
2022-12-15T21:13:20.150Z,98413.66
2022-12-15T21:16:34.290Z,98400.56
2022-12-15T21:19:46.263Z,98412.59
2022-12-15T21:22:58.298Z,98414.65
2022-12-15T21:26:15.381Z,98403.39
2022-12-15T21:29:32.017Z,98394.68
2022-12-15T21:32:43.968Z,98384.27
2022-12-15T21:35:56.036Z,98377.53
2022-12-15T21:39:11.615Z,98362.69
2022-12-15T21:42:25.121Z,98372.63
2022-12-15T21:45:37.109Z,98370.02
2022-12-15T21:49:04.255Z,98372.79
2022-12-15T21:52:17.550Z,98362.60
2022-12-15T21:55:32.311Z,98361.92
2022-12-15T21:58:44.281Z,98350.66
2022-12-15T22:01:57.140Z,98341.23
2022-12-15T22:05:10.713Z,98342.09
2022-12-15T22:08:25.714Z,98349.13
2022-12-15T22:11:38.869Z,98336.97
2022-12-15T22:14:50.843Z,98346.70
2022-12-15T22:18:03.621Z,98355.27
2022-12-15T22:21:15.945Z,98340.56
2022-12-15T22:24:27.795Z,98344.23
2022-12-15T22:27:40.499Z,98343.41
2022-12-15T22:30:52.460Z,98349.61
2022-12-15T22:34:06.290Z,98352.42
2022-12-15T22:37:18.060Z,98357.48
2022-12-15T22:40:30.862Z,98357.63
2022-12-15T22:43:47.646Z,98355.95
2022-12-15T22:47:02.719Z,98350.59
2022-12-15T22:50:20.163Z,98344.70
2022-12-15T22:53:36.654Z,98310.05
2022-12-15T22:56:48.686Z,98319.84
2022-12-15T23:00:05.673Z,98331.91
2022-12-15T23:03:18.748Z,98338.66
2022-12-15T23:06:32.016Z,98324.44
2022-12-15T23:09:44.024Z,98320.66
2022-12-15T23:12:56.491Z,98310.34
2022-12-15T23:16:25.025Z,98308.42
2022-12-15T23:19:37.059Z,98291.06
2022-12-15T23:22:49.044Z,98292.81
2022-12-15T23:26:01.043Z,98290.08
2022-12-15T23:29:12.965Z,98275.45
2022-12-15T23:32:24.736Z,98276.22
2022-12-15T23:35:36.574Z,98276.22
2022-12-15T23:38:48.848Z,98271.86
2022-12-15T23:42:00.681Z,98279.59
2022-12-15T23:45:15.402Z,98282.19
2022-12-15T23:48:27.278Z,98277.92
2022-12-15T23:51:39.114Z,98276.30
2022-12-15T23:54:51.104Z,98261.38
2022-12-15T23:58:04.228Z,98263.38
